sensor_id;sensor_type;location;lat;lon;timestamp;P1;durP1;ratioP1;P2;durP2;ratioP2
63312;SDS011;49442;45.640;13.812;2022-09-09T00:01:36;10.52;;;6.60;;
63312;SDS011;49442;45.640;13.812;2022-09-09T00:12:49;11.35;;;5.95;;
63312;SDS011;49442;45.640;13.812;2022-09-09T00:15:37;9.80;;;6.95;;
63312;SDS011;49442;45.640;13.812;2022-09-09T00:23:29;9.23;;;5.43;;
63312;SDS011;49442;45.640;13.812;2022-09-09T00:26:08;12.85;;;5.53;;
63312;SDS011;49442;45.640;13.812;2022-09-09T00:29:22;16.08;;;5.43;;
63312;SDS011;49442;45.640;13.812;2022-09-09T00:31:35;11.07;;;5.75;;
63312;SDS011;49442;45.640;13.812;2022-09-09T00:34:13;16.08;;;5.30;;
63312;SDS011;49442;45.640;13.812;2022-09-09T00:36:48;12.32;;;5.30;;
63312;SDS011;49442;45.640;13.812;2022-09-09T00:39:23;6.75;;;4.95;;
63312;SDS011;49442;45.640;13.812;2022-09-09T00:42:16;9.60;;;5.00;;
63312;SDS011;49442;45.640;13.812;2022-09-09T00:44:59;6.88;;;4.22;;
63312;SDS011;49442;45.640;13.812;2022-09-09T00:56:12;8.80;;;4.45;;
63312;SDS011;49442;45.640;13.812;2022-09-09T00:58:40;8.43;;;4.38;;
63312;SDS011;49442;45.640;13.812;2022-09-09T01:01:11;12.82;;;4.88;;
63312;SDS011;49442;45.640;13.812;2022-09-09T01:06:28;9.25;;;3.80;;
63312;SDS011;49442;45.640;13.812;2022-09-09T01:11:37;15.30;;;4.53;;
63312;SDS011;49442;45.640;13.812;2022-09-09T01:14:24;13.70;;;5.35;;
63312;SDS011;49442;45.640;13.812;2022-09-09T01:16:56;7.47;;;4.18;;
63312;SDS011;49442;45.640;13.812;2022-09-09T01:27:41;8.20;;;3.78;;
63312;SDS011;49442;45.640;13.812;2022-09-09T01:30:14;7.60;;;3.95;;
63312;SDS011;49442;45.640;13.812;2022-09-09T01:32:43;9.45;;;3.80;;
63312;SDS011;49442;45.640;13.812;2022-09-09T01:35:13;9.90;;;4.07;;
63312;SDS011;49442;45.640;13.812;2022-09-09T01:38:04;8.55;;;4.65;;
63312;SDS011;49442;45.640;13.812;2022-09-09T01:40:29;11.93;;;3.58;;
63312;SDS011;49442;45.640;13.812;2022-09-09T01:42:55;11.98;;;4.38;;
63312;SDS011;49442;45.640;13.812;2022-09-09T01:45:21;7.60;;;4.38;;
63312;SDS011;49442;45.640;13.812;2022-09-09T01:47:48;11.40;;;4.70;;
63312;SDS011;49442;45.640;13.812;2022-09-09T01:50:15;9.05;;;4.25;;
63312;SDS011;49442;45.640;13.812;2022-09-09T01:52:42;13.48;;;4.50;;
63312;SDS011;49442;45.640;13.812;2022-09-09T01:55:11;9.27;;;4.82;;
63312;SDS011;49442;45.640;13.812;2022-09-09T01:57:50;13.40;;;5.80;;
63312;SDS011;49442;45.640;13.812;2022-09-09T02:00:44;12.63;;;5.45;;
63312;SDS011;49442;45.640;13.812;2022-09-09T02:08:52;13.90;;;5.35;;
63312;SDS011;49442;45.640;13.812;2022-09-09T02:11:24;14.20;;;6.07;;
63312;SDS011;49442;45.640;13.812;2022-09-09T02:13:53;6.22;;;4.72;;
63312;SDS011;49442;45.640;13.812;2022-09-09T02:19:34;7.40;;;4.00;;
63312;SDS011;49442;45.640;13.812;2022-09-09T02:22:14;11.13;;;3.78;;
63312;SDS011;49442;45.640;13.812;2022-09-09T02:24:42;7.30;;;3.05;;
63312;SDS011;49442;45.640;13.812;2022-09-09T02:27:11;6.50;;;2.92;;
63312;SDS011;49442;45.640;13.812;2022-09-09T02:29:41;7.15;;;2.95;;
63312;SDS011;49442;45.640;13.812;2022-09-09T02:32:13;6.35;;;3.00;;
63312;SDS011;49442;45.640;13.812;2022-09-09T02:34:47;3.75;;;2.17;;
63312;SDS011;49442;45.640;13.812;2022-09-09T02:37:26;6.38;;;3.10;;
63312;SDS011;49442;45.640;13.812;2022-09-09T02:42:22;7.65;;;2.92;;
63312;SDS011;49442;45.640;13.812;2022-09-09T02:44:48;3.85;;;2.42;;
63312;SDS011;49442;45.640;13.812;2022-09-09T02:55:11;7.43;;;3.15;;
63312;SDS011;49442;45.640;13.812;2022-09-09T02:57:54;5.38;;;2.85;;
63312;SDS011;49442;45.640;13.812;2022-09-09T03:00:26;5.22;;;2.83;;
63312;SDS011;49442;45.640;13.812;2022-09-09T03:02:53;5.50;;;2.85;;
63312;SDS011;49442;45.640;13.812;2022-09-09T03:05:21;3.35;;;2.17;;
63312;SDS011;49442;45.640;13.812;2022-09-09T03:07:47;5.45;;;2.80;;
63312;SDS011;49442;45.640;13.812;2022-09-09T03:10:14;6.57;;;2.63;;
63312;SDS011;49442;45.640;13.812;2022-09-09T03:12:40;9.60;;;2.63;;
63312;SDS011;49442;45.640;13.812;2022-09-09T03:15:06;5.93;;;2.75;;
63312;SDS011;49442;45.640;13.812;2022-09-09T03:17:32;3.42;;;2.35;;
63312;SDS011;49442;45.640;13.812;2022-09-09T03:19:58;3.42;;;2.35;;
63312;SDS011;49442;45.640;13.812;2022-09-09T03:22:24;5.60;;;3.15;;
63312;SDS011;49442;45.640;13.812;2022-09-09T03:24:50;5.40;;;2.55;;
63312;SDS011;49442;45.640;13.812;2022-09-09T03:27:17;5.95;;;2.10;;
63312;SDS011;49442;45.640;13.812;2022-09-09T03:29:44;4.07;;;2.28;;
63312;SDS011;49442;45.640;13.812;2022-09-09T03:32:10;4.45;;;2.05;;
63312;SDS011;49442;45.640;13.812;2022-09-09T03:34:37;6.00;;;2.33;;
63312;SDS011;49442;45.640;13.812;2022-09-09T03:37:05;8.10;;;2.30;;
63312;SDS011;49442;45.640;13.812;2022-09-09T03:39:31;4.40;;;1.90;;
63312;SDS011;49442;45.640;13.812;2022-09-09T03:41:57;6.50;;;2.28;;
63312;SDS011;49442;45.640;13.812;2022-09-09T03:44:22;2.92;;;2.22;;
63312;SDS011;49442;45.640;13.812;2022-09-09T03:46:48;6.72;;;2.22;;
63312;SDS011;49442;45.640;13.812;2022-09-09T03:49:14;5.50;;;2.28;;
63312;SDS011;49442;45.640;13.812;2022-09-09T03:51:40;7.53;;;2.20;;
63312;SDS011;49442;45.640;13.812;2022-09-09T03:54:06;6.60;;;2.72;;
63312;SDS011;49442;45.640;13.812;2022-09-09T03:56:33;8.40;;;2.58;;
63312;SDS011;49442;45.640;13.812;2022-09-09T03:59:00;4.72;;;2.67;;
63312;SDS011;49442;45.640;13.812;2022-09-09T04:01:25;7.53;;;2.53;;
63312;SDS011;49442;45.640;13.812;2022-09-09T04:03:51;7.25;;;2.42;;
63312;SDS011;49442;45.640;13.812;2022-09-09T04:06:17;6.95;;;3.42;;
63312;SDS011;49442;45.640;13.812;2022-09-09T04:08:44;7.18;;;3.15;;
63312;SDS011;49442;45.640;13.812;2022-09-09T04:11:10;6.88;;;3.15;;
63312;SDS011;49442;45.640;13.812;2022-09-09T04:13:37;9.32;;;3.08;;
63312;SDS011;49442;45.640;13.812;2022-09-09T04:16:04;8.48;;;2.95;;
63312;SDS011;49442;45.640;13.812;2022-09-09T04:18:30;7.57;;;3.13;;
63312;SDS011;49442;45.640;13.812;2022-09-09T04:20:56;6.18;;;3.63;;
63312;SDS011;49442;45.640;13.812;2022-09-09T04:23:22;14.20;;;3.10;;
63312;SDS011;49442;45.640;13.812;2022-09-09T04:25:50;8.77;;;3.55;;
63312;SDS011;49442;45.640;13.812;2022-09-09T04:28:18;8.27;;;3.50;;
63312;SDS011;49442;45.640;13.812;2022-09-09T04:30:46;6.13;;;3.83;;
63312;SDS011;49442;45.640;13.812;2022-09-09T04:33:12;8.32;;;3.67;;
63312;SDS011;49442;45.640;13.812;2022-09-09T04:35:39;9.15;;;2.90;;
63312;SDS011;49442;45.640;13.812;2022-09-09T04:38:08;10.55;;;3.45;;
63312;SDS011;49442;45.640;13.812;2022-09-09T04:40:34;4.95;;;3.60;;
63312;SDS011;49442;45.640;13.812;2022-09-09T04:43:00;11.32;;;4.10;;
63312;SDS011;49442;45.640;13.812;2022-09-09T04:45:28;10.32;;;3.65;;
63312;SDS011;49442;45.640;13.812;2022-09-09T04:47:55;7.28;;;3.05;;
63312;SDS011;49442;45.640;13.812;2022-09-09T04:50:20;9.85;;;3.80;;
63312;SDS011;49442;45.640;13.812;2022-09-09T04:52:46;10.70;;;4.40;;
63312;SDS011;49442;45.640;13.812;2022-09-09T04:55:12;4.78;;;3.03;;
63312;SDS011;49442;45.640;13.812;2022-09-09T04:57:38;6.85;;;3.67;;
63312;SDS011;49442;45.640;13.812;2022-09-09T05:00:04;10.63;;;3.50;;
63312;SDS011;49442;45.640;13.812;2022-09-09T05:02:31;11.35;;;3.30;;
63312;SDS011;49442;45.640;13.812;2022-09-09T05:04:57;13.40;;;3.92;;
63312;SDS011;49442;45.640;13.812;2022-09-09T05:07:23;6.60;;;3.97;;
63312;SDS011;49442;45.640;13.812;2022-09-09T05:09:49;5.80;;;3.63;;
63312;SDS011;49442;45.640;13.812;2022-09-09T05:12:17;10.40;;;3.88;;
63312;SDS011;49442;45.640;13.812;2022-09-09T05:14:43;7.80;;;3.72;;
63312;SDS011;49442;45.640;13.812;2022-09-09T05:17:09;7.82;;;4.47;;
63312;SDS011;49442;45.640;13.812;2022-09-09T05:19:35;6.03;;;4.10;;
63312;SDS011;49442;45.640;13.812;2022-09-09T05:22:01;7.65;;;4.45;;
63312;SDS011;49442;45.640;13.812;2022-09-09T05:24:27;12.82;;;4.55;;
63312;SDS011;49442;45.640;13.812;2022-09-09T05:26:53;10.48;;;4.78;;
63312;SDS011;49442;45.640;13.812;2022-09-09T05:29:23;17.52;;;5.32;;
63312;SDS011;49442;45.640;13.812;2022-09-09T05:31:48;8.57;;;4.72;;
63312;SDS011;49442;45.640;13.812;2022-09-09T05:34:14;11.40;;;5.15;;
63312;SDS011;49442;45.640;13.812;2022-09-09T05:36:40;14.40;;;4.45;;
63312;SDS011;49442;45.640;13.812;2022-09-09T05:39:05;8.80;;;4.45;;
63312;SDS011;49442;45.640;13.812;2022-09-09T05:41:31;10.65;;;4.68;;
63312;SDS011;49442;45.640;13.812;2022-09-09T05:43:57;7.90;;;4.07;;
63312;SDS011;49442;45.640;13.812;2022-09-09T05:46:26;8.55;;;3.55;;
63312;SDS011;49442;45.640;13.812;2022-09-09T05:48:52;6.25;;;3.40;;
63312;SDS011;49442;45.640;13.812;2022-09-09T05:51:22;20.65;;;4.18;;
63312;SDS011;49442;45.640;13.812;2022-09-09T05:53:49;7.63;;;3.75;;
63312;SDS011;49442;45.640;13.812;2022-09-09T05:56:23;7.55;;;3.95;;
63312;SDS011;49442;45.640;13.812;2022-09-09T05:58:50;10.10;;;4.00;;
63312;SDS011;49442;45.640;13.812;2022-09-09T06:01:20;9.40;;;3.90;;
63312;SDS011;49442;45.640;13.812;2022-09-09T06:03:46;11.50;;;4.18;;
63312;SDS011;49442;45.640;13.812;2022-09-09T06:06:15;7.38;;;3.50;;
63312;SDS011;49442;45.640;13.812;2022-09-09T06:08:53;7.72;;;4.35;;
63312;SDS011;49442;45.640;13.812;2022-09-09T06:11:28;13.57;;;4.35;;
63312;SDS011;49442;45.640;13.812;2022-09-09T06:13:59;10.10;;;3.78;;
63312;SDS011;49442;45.640;13.812;2022-09-09T06:16:26;9.93;;;5.18;;
63312;SDS011;49442;45.640;13.812;2022-09-09T06:18:53;8.25;;;4.03;;
63312;SDS011;49442;45.640;13.812;2022-09-09T06:21:24;9.20;;;3.67;;
63312;SDS011;49442;45.640;13.812;2022-09-09T06:23:49;12.02;;;4.63;;
63312;SDS011;49442;45.640;13.812;2022-09-09T06:26:26;11.18;;;4.35;;
63312;SDS011;49442;45.640;13.812;2022-09-09T06:28:54;9.60;;;4.60;;
63312;SDS011;49442;45.640;13.812;2022-09-09T06:31:21;10.10;;;4.82;;
63312;SDS011;49442;45.640;13.812;2022-09-09T06:33:49;9.57;;;5.22;;
63312;SDS011;49442;45.640;13.812;2022-09-09T06:36:17;10.52;;;5.40;;
63312;SDS011;49442;45.640;13.812;2022-09-09T06:38:48;9.52;;;4.22;;
63312;SDS011;49442;45.640;13.812;2022-09-09T06:41:14;6.63;;;4.05;;
63312;SDS011;49442;45.640;13.812;2022-09-09T06:43:42;15.57;;;5.15;;
63312;SDS011;49442;45.640;13.812;2022-09-09T06:46:11;12.13;;;4.80;;
63312;SDS011;49442;45.640;13.812;2022-09-09T06:48:41;4.97;;;3.47;;
63312;SDS011;49442;45.640;13.812;2022-09-09T06:53:37;15.00;;;4.95;;
63312;SDS011;49442;45.640;13.812;2022-09-09T06:58:44;13.38;;;4.75;;
63312;SDS011;49442;45.640;13.812;2022-09-09T07:01:11;17.58;;;4.22;;
63312;SDS011;49442;45.640;13.812;2022-09-09T07:03:41;10.75;;;4.72;;
63312;SDS011;49442;45.640;13.812;2022-09-09T07:06:13;7.10;;;3.45;;
63312;SDS011;49442;45.640;13.812;2022-09-09T07:08:41;9.13;;;3.65;;
63312;SDS011;49442;45.640;13.812;2022-09-09T07:11:08;7.20;;;3.90;;
63312;SDS011;49442;45.640;13.812;2022-09-09T07:13:34;10.10;;;4.20;;
63312;SDS011;49442;45.640;13.812;2022-09-09T07:16:04;9.80;;;3.35;;
63312;SDS011;49442;45.640;13.812;2022-09-09T07:18:31;8.60;;;3.33;;
63312;SDS011;49442;45.640;13.812;2022-09-09T07:20:56;6.38;;;3.55;;
63312;SDS011;49442;45.640;13.812;2022-09-09T07:23:22;10.00;;;3.33;;
63312;SDS011;49442;45.640;13.812;2022-09-09T07:25:49;8.38;;;3.17;;
63312;SDS011;49442;45.640;13.812;2022-09-09T07:28:15;9.05;;;3.20;;
63312;SDS011;49442;45.640;13.812;2022-09-09T07:30:42;8.27;;;2.92;;
63312;SDS011;49442;45.640;13.812;2022-09-09T07:33:08;8.48;;;3.25;;
63312;SDS011;49442;45.640;13.812;2022-09-09T07:35:36;6.75;;;2.63;;
63312;SDS011;49442;45.640;13.812;2022-09-09T07:38:04;9.80;;;4.18;;
63312;SDS011;49442;45.640;13.812;2022-09-09T07:40:32;8.45;;;3.05;;
63312;SDS011;49442;45.640;13.812;2022-09-09T07:42:59;8.57;;;2.75;;
63312;SDS011;49442;45.640;13.812;2022-09-09T07:45:25;4.07;;;2.80;;
63312;SDS011;49442;45.640;13.812;2022-09-09T07:47:53;7.63;;;3.30;;
63312;SDS011;49442;45.640;13.812;2022-09-09T07:50:21;13.13;;;3.45;;
63312;SDS011;49442;45.640;13.812;2022-09-09T07:52:48;10.82;;;3.53;;
63312;SDS011;49442;45.640;13.812;2022-09-09T07:55:14;9.20;;;3.58;;
63312;SDS011;49442;45.640;13.812;2022-09-09T07:57:40;18.23;;;4.35;;
63312;SDS011;49442;45.640;13.812;2022-09-09T08:00:06;13.68;;;4.20;;
63312;SDS011;49442;45.640;13.812;2022-09-09T08:02:32;11.80;;;4.07;;
63312;SDS011;49442;45.640;13.812;2022-09-09T08:04:58;16.10;;;3.78;;
63312;SDS011;49442;45.640;13.812;2022-09-09T08:07:23;8.77;;;4.05;;
63312;SDS011;49442;45.640;13.812;2022-09-09T08:09:49;8.98;;;4.00;;
63312;SDS011;49442;45.640;13.812;2022-09-09T08:12:15;8.60;;;4.35;;
63312;SDS011;49442;45.640;13.812;2022-09-09T08:14:41;14.48;;;4.45;;
63312;SDS011;49442;45.640;13.812;2022-09-09T08:17:07;7.63;;;4.35;;
63312;SDS011;49442;45.640;13.812;2022-09-09T08:19:33;11.30;;;3.53;;
63312;SDS011;49442;45.640;13.812;2022-09-09T08:22:01;13.40;;;4.15;;
63312;SDS011;49442;45.640;13.812;2022-09-09T08:24:28;15.38;;;3.67;;
63312;SDS011;49442;45.640;13.812;2022-09-09T08:26:54;8.20;;;4.70;;
63312;SDS011;49442;45.640;13.812;2022-09-09T08:29:21;9.40;;;3.78;;
63312;SDS011;49442;45.640;13.812;2022-09-09T08:31:52;7.25;;;3.33;;
63312;SDS011;49442;45.640;13.812;2022-09-09T08:34:20;6.93;;;3.65;;
63312;SDS011;49442;45.640;13.812;2022-09-09T08:36:47;11.40;;;3.97;;
63312;SDS011;49442;45.640;13.812;2022-09-09T08:39:15;10.50;;;4.85;;
63312;SDS011;49442;45.640;13.812;2022-09-09T08:44:45;17.33;;;5.07;;
63312;SDS011;49442;45.640;13.812;2022-09-09T08:52:39;12.32;;;4.70;;
63312;SDS011;49442;45.640;13.812;2022-09-09T08:58:14;10.82;;;4.72;;
63312;SDS011;49442;45.640;13.812;2022-09-09T09:03:28;11.20;;;4.38;;
63312;SDS011;49442;45.640;13.812;2022-09-09T09:06:16;7.57;;;3.95;;
63312;SDS011;49442;45.640;13.812;2022-09-09T09:11:20;9.07;;;3.30;;
63312;SDS011;49442;45.640;13.812;2022-09-09T09:14:01;9.52;;;3.80;;
63312;SDS011;49442;45.640;13.812;2022-09-09T09:19:17;10.95;;;4.05;;
63312;SDS011;49442;45.640;13.812;2022-09-09T09:21:45;9.88;;;3.53;;
63312;SDS011;49442;45.640;13.812;2022-09-09T09:24:19;9.40;;;5.13;;
63312;SDS011;49442;45.640;13.812;2022-09-09T09:26:47;16.88;;;4.88;;
63312;SDS011;49442;45.640;13.812;2022-09-09T09:29:14;9.48;;;4.63;;
63312;SDS011;49442;45.640;13.812;2022-09-09T09:31:45;13.65;;;4.90;;
63312;SDS011;49442;45.640;13.812;2022-09-09T09:34:17;8.40;;;4.00;;
63312;SDS011;49442;45.640;13.812;2022-09-09T09:36:52;14.38;;;5.07;;
63312;SDS011;49442;45.640;13.812;2022-09-09T09:39:26;24.17;;;4.30;;
63312;SDS011;49442;45.640;13.812;2022-09-09T09:41:54;20.98;;;3.78;;
63312;SDS011;49442;45.640;13.812;2022-09-09T09:44:30;16.35;;;4.72;;
63312;SDS011;49442;45.640;13.812;2022-09-09T09:47:07;11.68;;;3.30;;
63312;SDS011;49442;45.640;13.812;2022-09-09T09:49:37;21.85;;;4.22;;
63312;SDS011;49442;45.640;13.812;2022-09-09T09:52:03;11.13;;;2.92;;
63312;SDS011;49442;45.640;13.812;2022-09-09T09:54:37;9.40;;;2.97;;
63312;SDS011;49442;45.640;13.812;2022-09-09T09:57:15;12.65;;;3.20;;
63312;SDS011;49442;45.640;13.812;2022-09-09T09:59:42;17.38;;;3.80;;
63312;SDS011;49442;45.640;13.812;2022-09-09T10:04:40;2.03;;;1.50;;
63312;SDS011;49442;45.640;13.812;2022-09-09T10:07:19;4.60;;;1.70;;
63312;SDS011;49442;45.640;13.812;2022-09-09T10:09:51;4.80;;;1.98;;
63312;SDS011;49442;45.640;13.812;2022-09-09T10:12:24;5.97;;;2.03;;
63312;SDS011;49442;45.640;13.812;2022-09-09T10:22:34;1.90;;;1.60;;
63312;SDS011;49442;45.640;13.812;2022-09-09T10:28:25;7.28;;;2.42;;
63312;SDS011;49442;45.640;13.812;2022-09-09T10:37:14;2.70;;;2.20;;
63312;SDS011;49442;45.640;13.812;2022-09-09T10:39:54;4.28;;;2.25;;
63312;SDS011;49442;45.640;13.812;2022-09-09T10:42:42;3.88;;;2.95;;
63312;SDS011;49442;45.640;13.812;2022-09-09T10:55:47;8.68;;;5.45;;
63312;SDS011;49442;45.640;13.812;2022-09-09T10:58:22;6.60;;;4.30;;
63312;SDS011;49442;45.640;13.812;2022-09-09T11:03:28;7.25;;;5.00;;
63312;SDS011;49442;45.640;13.812;2022-09-09T11:08:24;8.75;;;5.07;;
63312;SDS011;49442;45.640;13.812;2022-09-09T11:10:57;9.20;;;5.70;;
63312;SDS011;49442;45.640;13.812;2022-09-09T11:21:50;13.90;;;6.03;;
63312;SDS011;49442;45.640;13.812;2022-09-09T11:24:21;8.13;;;5.45;;
63312;SDS011;49442;45.640;13.812;2022-09-09T11:26:54;8.02;;;5.20;;
63312;SDS011;49442;45.640;13.812;2022-09-09T11:37:55;5.63;;;4.47;;
63312;SDS011;49442;45.640;13.812;2022-09-09T11:40:37;6.95;;;4.57;;
63312;SDS011;49442;45.640;13.812;2022-09-09T11:43:04;7.32;;;3.60;;
63312;SDS011;49442;45.640;13.812;2022-09-09T11:45:37;8.30;;;3.65;;
63312;SDS011;49442;45.640;13.812;2022-09-09T11:48:04;8.43;;;3.25;;
63312;SDS011;49442;45.640;13.812;2022-09-09T11:50:36;5.50;;;3.67;;
63312;SDS011;49442;45.640;13.812;2022-09-09T11:53:15;4.20;;;3.17;;
63312;SDS011;49442;45.640;13.812;2022-09-09T11:55:46;5.13;;;3.25;;
63312;SDS011;49442;45.640;13.812;2022-09-09T12:00:38;10.05;;;4.53;;
63312;SDS011;49442;45.640;13.812;2022-09-09T12:05:59;5.50;;;3.25;;
63312;SDS011;49442;45.640;13.812;2022-09-09T12:08:34;10.15;;;3.83;;
63312;SDS011;49442;45.640;13.812;2022-09-09T12:11:02;4.70;;;3.10;;
63312;SDS011;49442;45.640;13.812;2022-09-09T12:13:30;3.80;;;3.15;;
63312;SDS011;49442;45.640;13.812;2022-09-09T12:15:57;5.07;;;3.75;;
63312;SDS011;49442;45.640;13.812;2022-09-09T12:18:34;3.47;;;2.25;;
63312;SDS011;49442;45.640;13.812;2022-09-09T12:21:16;3.05;;;2.00;;
63312;SDS011;49442;45.640;13.812;2022-09-09T12:23:50;3.83;;;2.67;;
63312;SDS011;49442;45.640;13.812;2022-09-09T12:34:06;4.32;;;1.83;;
63312;SDS011;49442;45.640;13.812;2022-09-09T12:37:24;7.40;;;3.25;;
63312;SDS011;49442;45.640;13.812;2022-09-09T12:40:00;6.60;;;1.98;;
63312;SDS011;49442;45.640;13.812;2022-09-09T12:42:28;4.88;;;2.42;;
63312;SDS011;49442;45.640;13.812;2022-09-09T12:44:56;3.63;;;2.20;;
63312;SDS011;49442;45.640;13.812;2022-09-09T12:47:29;5.72;;;2.33;;
63312;SDS011;49442;45.640;13.812;2022-09-09T12:49:56;7.60;;;2.85;;
63312;SDS011;49442;45.640;13.812;2022-09-09T12:52:35;5.35;;;2.20;;
63312;SDS011;49442;45.640;13.812;2022-09-09T12:55:04;4.95;;;2.63;;
63312;SDS011;49442;45.640;13.812;2022-09-09T12:57:37;7.05;;;2.30;;
63312;SDS011;49442;45.640;13.812;2022-09-09T13:00:05;4.72;;;2.50;;
63312;SDS011;49442;45.640;13.812;2022-09-09T13:02:33;3.28;;;2.40;;
63312;SDS011;49442;45.640;13.812;2022-09-09T13:05:34;3.17;;;2.28;;
63312;SDS011;49442;45.640;13.812;2022-09-09T13:08:03;7.03;;;2.22;;
63312;SDS011;49442;45.640;13.812;2022-09-09T13:10:34;4.60;;;2.20;;
63312;SDS011;49442;45.640;13.812;2022-09-09T13:13:23;5.15;;;2.30;;
63312;SDS011;49442;45.640;13.812;2022-09-09T13:15:56;5.93;;;1.83;;
63312;SDS011;49442;45.640;13.812;2022-09-09T13:18:24;3.70;;;2.17;;
63312;SDS011;49442;45.640;13.812;2022-09-09T13:20:54;3.17;;;2.30;;
63312;SDS011;49442;45.640;13.812;2022-09-09T13:23:22;3.28;;;2.35;;
63312;SDS011;49442;45.640;13.812;2022-09-09T13:26:00;3.33;;;2.35;;
63312;SDS011;49442;45.640;13.812;2022-09-09T13:28:29;4.40;;;2.58;;
63312;SDS011;49442;45.640;13.812;2022-09-09T13:31:00;3.72;;;2.35;;
63312;SDS011;49442;45.640;13.812;2022-09-09T13:33:38;4.35;;;2.40;;
63312;SDS011;49442;45.640;13.812;2022-09-09T13:36:06;2.78;;;2.30;;
63312;SDS011;49442;45.640;13.812;2022-09-09T13:41:19;7.88;;;1.92;;
63312;SDS011;49442;45.640;13.812;2022-09-09T13:43:48;5.68;;;2.05;;
63312;SDS011;49442;45.640;13.812;2022-09-09T13:46:25;3.38;;;1.98;;
63312;SDS011;49442;45.640;13.812;2022-09-09T13:54:08;4.97;;;2.35;;
63312;SDS011;49442;45.640;13.812;2022-09-09T13:56:36;6.20;;;2.40;;
63312;SDS011;49442;45.640;13.812;2022-09-09T13:59:04;6.00;;;2.50;;
63312;SDS011;49442;45.640;13.812;2022-09-09T14:01:31;6.13;;;2.75;;
63312;SDS011;49442;45.640;13.812;2022-09-09T14:03:59;3.75;;;2.78;;
63312;SDS011;49442;45.640;13.812;2022-09-09T14:06:25;6.03;;;2.70;;
63312;SDS011;49442;45.640;13.812;2022-09-09T14:08:52;6.63;;;2.72;;
63312;SDS011;49442;45.640;13.812;2022-09-09T14:11:19;7.13;;;2.95;;
63312;SDS011;49442;45.640;13.812;2022-09-09T14:13:46;7.30;;;3.67;;
63312;SDS011;49442;45.640;13.812;2022-09-09T14:16:15;4.65;;;2.70;;
63312;SDS011;49442;45.640;13.812;2022-09-09T14:18:41;4.65;;;2.80;;
63312;SDS011;49442;45.640;13.812;2022-09-09T14:21:06;8.55;;;3.17;;
63312;SDS011;49442;45.640;13.812;2022-09-09T14:23:33;6.13;;;3.00;;
63312;SDS011;49442;45.640;13.812;2022-09-09T14:25:59;13.68;;;3.70;;
63312;SDS011;49442;45.640;13.812;2022-09-09T14:28:25;6.32;;;3.30;;
63312;SDS011;49442;45.640;13.812;2022-09-09T14:30:50;5.72;;;3.25;;
63312;SDS011;49442;45.640;13.812;2022-09-09T14:33:16;9.35;;;3.08;;
63312;SDS011;49442;45.640;13.812;2022-09-09T14:35:42;10.23;;;3.40;;
63312;SDS011;49442;45.640;13.812;2022-09-09T14:38:10;8.93;;;3.72;;
63312;SDS011;49442;45.640;13.812;2022-09-09T14:40:37;11.32;;;4.13;;
63312;SDS011;49442;45.640;13.812;2022-09-09T14:43:03;11.30;;;4.00;;
63312;SDS011;49442;45.640;13.812;2022-09-09T14:45:30;10.75;;;3.63;;
63312;SDS011;49442;45.640;13.812;2022-09-09T14:47:57;12.20;;;3.40;;
63312;SDS011;49442;45.640;13.812;2022-09-09T14:50:23;7.70;;;2.60;;
63312;SDS011;49442;45.640;13.812;2022-09-09T14:52:49;12.82;;;3.58;;
63312;SDS011;49442;45.640;13.812;2022-09-09T14:55:15;8.73;;;3.05;;
63312;SDS011;49442;45.640;13.812;2022-09-09T14:57:41;9.98;;;3.47;;
63312;SDS011;49442;45.640;13.812;2022-09-09T15:00:07;11.15;;;3.22;;
63312;SDS011;49442;45.640;13.812;2022-09-09T15:02:34;4.55;;;2.20;;
63312;SDS011;49442;45.640;13.812;2022-09-09T15:05:00;8.95;;;2.33;;
63312;SDS011;49442;45.640;13.812;2022-09-09T15:07:26;15.30;;;3.47;;
63312;SDS011;49442;45.640;13.812;2022-09-09T15:09:53;8.40;;;2.50;;
63312;SDS011;49442;45.640;13.812;2022-09-09T15:12:19;5.28;;;2.28;;
63312;SDS011;49442;45.640;13.812;2022-09-09T15:14:45;8.10;;;2.58;;
63312;SDS011;49442;45.640;13.812;2022-09-09T15:17:12;10.25;;;2.90;;
63312;SDS011;49442;45.640;13.812;2022-09-09T15:19:38;12.40;;;3.22;;
63312;SDS011;49442;45.640;13.812;2022-09-09T15:22:04;7.45;;;2.33;;
63312;SDS011;49442;45.640;13.812;2022-09-09T15:24:34;13.40;;;2.55;;
63312;SDS011;49442;45.640;13.812;2022-09-09T15:27:00;13.13;;;3.22;;
63312;SDS011;49442;45.640;13.812;2022-09-09T15:29:26;7.97;;;1.92;;
63312;SDS011;49442;45.640;13.812;2022-09-09T15:31:55;15.70;;;2.97;;
63312;SDS011;49442;45.640;13.812;2022-09-09T15:34:21;9.15;;;2.20;;
63312;SDS011;49442;45.640;13.812;2022-09-09T15:36:47;8.15;;;2.63;;
63312;SDS011;49442;45.640;13.812;2022-09-09T15:39:14;9.45;;;3.08;;
63312;SDS011;49442;45.640;13.812;2022-09-09T15:41:41;8.43;;;2.20;;
63312;SDS011;49442;45.640;13.812;2022-09-09T15:44:09;21.98;;;4.00;;
63312;SDS011;49442;45.640;13.812;2022-09-09T15:46:37;18.02;;;2.95;;
63312;SDS011;49442;45.640;13.812;2022-09-09T15:51:36;13.43;;;3.60;;
63312;SDS011;49442;45.640;13.812;2022-09-09T15:54:07;17.38;;;3.30;;
63312;SDS011;49442;45.640;13.812;2022-09-09T15:56:34;14.88;;;2.65;;
63312;SDS011;49442;45.640;13.812;2022-09-09T15:59:00;11.60;;;2.78;;
63312;SDS011;49442;45.640;13.812;2022-09-09T16:01:28;7.30;;;2.42;;
63312;SDS011;49442;45.640;13.812;2022-09-09T16:03:55;20.00;;;2.78;;
63312;SDS011;49442;45.640;13.812;2022-09-09T16:06:23;10.32;;;2.10;;
63312;SDS011;49442;45.640;13.812;2022-09-09T16:08:50;7.63;;;2.50;;
63312;SDS011;49442;45.640;13.812;2022-09-09T16:11:20;5.78;;;2.22;;
63312;SDS011;49442;45.640;13.812;2022-09-09T16:13:51;6.38;;;2.60;;
63312;SDS011;49442;45.640;13.812;2022-09-09T16:16:20;16.73;;;2.53;;
63312;SDS011;49442;45.640;13.812;2022-09-09T16:18:48;12.75;;;2.50;;
63312;SDS011;49442;45.640;13.812;2022-09-09T16:21:20;9.68;;;3.13;;
63312;SDS011;49442;45.640;13.812;2022-09-09T16:23:54;3.90;;;1.60;;
63312;SDS011;49442;45.640;13.812;2022-09-09T16:26:20;4.18;;;1.30;;
63312;SDS011;49442;45.640;13.812;2022-09-09T16:28:46;4.03;;;1.70;;
63312;SDS011;49442;45.640;13.812;2022-09-09T16:31:16;6.22;;;1.60;;
63312;SDS011;49442;45.640;13.812;2022-09-09T16:33:43;6.23;;;1.93;;
63312;SDS011;49442;45.640;13.812;2022-09-09T16:36:11;11.60;;;1.90;;
63312;SDS011;49442;45.640;13.812;2022-09-09T16:38:38;10.02;;;2.15;;
63312;SDS011;49442;45.640;13.812;2022-09-09T16:41:05;15.88;;;1.77;;
63312;SDS011;49442;45.640;13.812;2022-09-09T16:43:32;3.67;;;1.73;;
63312;SDS011;49442;45.640;13.812;2022-09-09T16:45:59;5.55;;;2.03;;
63312;SDS011;49442;45.640;13.812;2022-09-09T16:48:31;4.60;;;2.00;;
63312;SDS011;49442;45.640;13.812;2022-09-09T16:51:01;8.90;;;2.58;;
63312;SDS011;49442;45.640;13.812;2022-09-09T16:53:32;5.68;;;1.90;;
63312;SDS011;49442;45.640;13.812;2022-09-09T16:56:04;5.03;;;1.67;;
63312;SDS011;49442;45.640;13.812;2022-09-09T16:58:31;4.55;;;1.80;;
63312;SDS011;49442;45.640;13.812;2022-09-09T17:00:57;4.95;;;2.22;;
63312;SDS011;49442;45.640;13.812;2022-09-09T17:03:24;7.95;;;2.80;;
63312;SDS011;49442;45.640;13.812;2022-09-09T17:05:49;6.20;;;2.58;;
63312;SDS011;49442;45.640;13.812;2022-09-09T17:08:15;7.35;;;2.10;;
63312;SDS011;49442;45.640;13.812;2022-09-09T17:10:41;3.53;;;2.47;;
63312;SDS011;49442;45.640;13.812;2022-09-09T17:13:07;7.82;;;2.30;;
63312;SDS011;49442;45.640;13.812;2022-09-09T17:15:38;6.05;;;2.67;;
63312;SDS011;49442;45.640;13.812;2022-09-09T17:18:07;9.57;;;2.58;;
63312;SDS011;49442;45.640;13.812;2022-09-09T17:20:35;8.88;;;2.53;;